aviador You're here:

OMAD Decoded Metar

ABU DHABI in UNITED ARAB EMIRATES
Report Time2018-05-26 17:00:00
UTC Time2018-05-26 17:25:15
Flight Rules vfr VFR
Wind360° at 07 kt
W.Decomp.*RWY 31: 4.7 kt HW 5.2 kt RCW
Visibility9999 m
Phenomena:N/A
Clouds:N/A
Expected CloudBase > 2,800 ft AGL from Temp-Dew spread
CeilingNone
Temp32°C (ISA +17)
Dew Point25°C (67% RH)
Heat Index39.3°C
QNH1005 hPa
Density Alt2,638 ft
Elevation10 ft
Report Wrong Elevation
Raw Report
METAR OMAD 261700Z 36007KT CAVOK 32/25 Q1005 NOSIG=

Extra information for OMAD:More info

Metar Taf Metar & Taf Last 4 Metars F.Rules Stats Wind Profile Meteogram Temp Stats Airport Information Weather charts Add Link Nearby VenuesMetar ALERT Operation Metar Decoded Social comments